createdAt,value
2018-06-19T00:00:50.783Z,13.86
2018-06-19T00:02:50.868Z,13.88
2018-06-19T00:04:50.344Z,13.88
2018-06-19T00:06:50.550Z,13.87
2018-06-19T00:08:50.647Z,13.86
2018-06-19T00:10:50.772Z,13.82
2018-06-19T00:12:50.911Z,13.82
2018-06-19T00:14:50.131Z,13.75
2018-06-19T00:16:50.323Z,13.75
2018-06-19T00:18:50.400Z,13.66
2018-06-19T00:20:50.542Z,13.61
2018-06-19T00:22:50.694Z,13.60
2018-06-19T00:24:50.823Z,13.60
2018-06-19T00:26:50.086Z,13.56
2018-06-19T00:28:50.286Z,13.53
2018-06-19T00:30:50.364Z,13.49
2018-06-19T00:32:50.512Z,13.48
2018-06-19T00:34:49.876Z,13.48
2018-06-19T00:36:50.159Z,13.48
2018-06-19T00:38:50.287Z,13.47
2018-06-19T00:40:50.466Z,13.44
2018-06-19T00:42:50.570Z,13.40
2018-06-19T00:44:50.727Z,13.35
2018-06-19T00:46:49.967Z,13.34
2018-06-19T00:48:50.055Z,13.34
2018-06-19T00:50:50.253Z,13.32
2018-06-19T00:52:50.312Z,13.33
2018-06-19T00:54:50.475Z,13.32
2018-06-19T00:56:50.666Z,13.29
2018-06-19T00:58:50.226Z,13.27
2018-06-19T01:00:50.418Z,13.24
2018-06-19T01:02:50.489Z,13.21
2018-06-19T01:04:50.763Z,13.19
2018-06-19T01:06:49.985Z,13.15
2018-06-19T01:08:50.271Z,13.12
2018-06-19T01:10:50.390Z,13.10
2018-06-19T01:12:50.533Z,13.06
2018-06-19T01:14:50.621Z,13.03
2018-06-19T01:16:50.052Z,12.99
2018-06-19T01:18:50.181Z,12.95
2018-06-19T01:20:50.255Z,12.88
2018-06-19T01:22:50.339Z,12.88
2018-06-19T01:24:50.414Z,12.89
2018-06-19T01:26:50.643Z,12.88
2018-06-19T01:28:50.789Z,12.84
2018-06-19T01:30:49.914Z,12.79
2018-06-19T01:32:50.058Z,12.77
2018-06-19T01:34:50.397Z,12.77
2018-06-19T01:36:50.599Z,12.76
2018-06-19T01:38:50.807Z,12.72
2018-06-19T01:40:49.921Z,12.70
2018-06-19T01:42:50.043Z,12.71
2018-06-19T01:44:50.186Z,12.75
2018-06-19T01:46:50.447Z,12.82
2018-06-19T01:48:50.556Z,12.82
2018-06-19T01:50:50.646Z,12.97
2018-06-19T01:52:50.774Z,13.01
2018-06-19T01:54:49.888Z,13.11
2018-06-19T01:56:50.179Z,13.24
2018-06-19T01:58:50.305Z,13.24
2018-06-19T02:00:50.432Z,13.38
2018-06-19T02:02:50.575Z,13.40
2018-06-19T02:04:50.784Z,13.43
2018-06-19T02:06:49.938Z,13.47
2018-06-19T02:08:50.603Z,13.53
2018-06-19T02:10:50.695Z,13.59
2018-06-19T02:12:50.801Z,13.60
2018-06-19T02:14:49.904Z,13.64
2018-06-19T02:16:50.113Z,13.64
2018-06-19T02:18:50.250Z,13.69
2018-06-19T02:20:50.329Z,13.72
2018-06-19T02:22:50.456Z,13.74
2018-06-19T02:24:50.534Z,13.74
2018-06-19T02:26:50.755Z,13.83
2018-06-19T02:28:50.649Z,13.89
2018-06-19T02:30:50.750Z,13.89
2018-06-19T02:32:49.889Z,13.95
2018-06-19T02:34:50.378Z,13.98
2018-06-19T02:36:49.962Z,14.02
2018-06-19T02:38:50.136Z,14.02
2018-06-19T02:40:50.255Z,14.09
2018-06-19T02:42:50.347Z,14.13
2018-06-19T02:44:50.478Z,14.16
2018-06-19T02:46:50.819Z,14.23
2018-06-19T02:48:49.942Z,14.24
2018-06-19T02:50:50.088Z,14.25
2018-06-19T02:52:50.332Z,14.29
2018-06-19T02:54:50.455Z,14.34
2018-06-19T02:56:50.670Z,14.34
2018-06-19T02:58:50.828Z,14.35
2018-06-19T03:00:49.936Z,14.35
2018-06-19T03:02:50.067Z,14.35
2018-06-19T03:04:50.372Z,14.34
2018-06-19T03:06:50.591Z,14.35
2018-06-19T03:08:50.689Z,14.35
2018-06-19T03:10:50.765Z,14.38
2018-06-19T03:12:49.926Z,14.40
2018-06-19T03:14:50.088Z,14.47
2018-06-19T03:16:50.362Z,14.48
2018-06-19T03:18:50.631Z,14.49
2018-06-19T03:20:50.702Z,14.52
2018-06-19T03:22:49.888Z,14.55
2018-06-19T03:24:50.017Z,14.54
2018-06-19T03:26:50.317Z,14.54
2018-06-19T03:28:50.429Z,14.56
2018-06-19T03:30:50.523Z,14.55
2018-06-19T03:32:50.645Z,14.56
2018-06-19T03:34:50.097Z,14.60
2018-06-19T03:36:50.320Z,14.60
2018-06-19T03:38:50.485Z,14.62
2018-06-19T03:40:50.599Z,14.65
2018-06-19T03:42:50.741Z,14.66
2018-06-19T03:44:50.802Z,14.71
2018-06-19T03:46:50.029Z,14.71
2018-06-19T03:48:50.262Z,14.76
2018-06-19T03:50:50.374Z,14.77
2018-06-19T03:52:50.565Z,14.79
2018-06-19T03:54:50.640Z,14.81
2018-06-19T03:56:50.855Z,14.86
2018-06-19T03:58:49.991Z,14.87
2018-06-19T04:00:50.122Z,14.88
2018-06-19T04:02:50.293Z,14.90
2018-06-19T04:04:50.563Z,14.92
2018-06-19T04:06:50.842Z,14.95
2018-06-19T04:08:49.931Z,14.97
2018-06-19T04:10:50.080Z,15.05
2018-06-19T04:12:50.299Z,15.08
2018-06-19T04:14:50.427Z,15.16
2018-06-19T04:16:50.694Z,15.16
2018-06-19T04:18:50.805Z,15.18
2018-06-19T04:20:49.885Z,15.23
2018-06-19T04:22:49.964Z,15.27
2018-06-19T04:24:50.137Z,15.32
2018-06-19T04:26:50.832Z,15.38
2018-06-19T04:28:49.927Z,15.44
2018-06-19T04:30:50.191Z,15.51
2018-06-19T04:32:50.330Z,15.60
2018-06-19T04:34:50.621Z,15.60
2018-06-19T04:36:50.861Z,15.66
2018-06-19T04:38:49.995Z,15.66
2018-06-19T04:40:50.098Z,15.66
2018-06-19T04:42:50.181Z,15.75
2018-06-19T04:44:50.269Z,15.77
2018-06-19T04:46:50.453Z,15.92
2018-06-19T04:48:50.612Z,15.95
2018-06-19T04:50:50.773Z,16.01
2018-06-19T04:52:50.829Z,16.03
2018-06-19T04:54:50.070Z,16.13
2018-06-19T04:56:50.357Z,16.25
2018-06-19T04:58:50.481Z,16.36
2018-06-19T05:00:50.616Z,16.43
2018-06-19T05:02:50.707Z,16.51
2018-06-19T05:04:50.032Z,16.51
2018-06-19T05:06:50.311Z,16.60
2018-06-19T05:08:50.448Z,16.67
2018-06-19T05:10:50.582Z,16.66
2018-06-19T05:12:51.072Z,16.67
2018-06-19T05:14:50.284Z,16.67
2018-06-19T05:16:50.620Z,16.70
2018-06-19T05:18:50.709Z,16.73
2018-06-19T05:20:50.793Z,16.73
2018-06-19T05:22:49.879Z,16.78
2018-06-19T05:24:50.012Z,16.80
2018-06-19T05:26:50.314Z,16.84
2018-06-19T05:28:50.421Z,16.95
2018-06-19T05:30:50.537Z,17.00
2018-06-19T05:32:50.621Z,17.06
2018-06-19T05:34:49.868Z,17.08
2018-06-19T05:36:50.505Z,17.08
2018-06-19T05:38:50.772Z,17.04
2018-06-19T05:40:50.904Z,17.00
2018-06-19T05:42:50.011Z,16.99
2018-06-19T05:44:50.297Z,17.06
2018-06-19T05:46:50.615Z,17.21
2018-06-19T05:48:50.789Z,17.30
2018-06-19T05:50:49.884Z,17.62
2018-06-19T05:52:50.577Z,17.75
2018-06-19T05:54:50.874Z,18.08
2018-06-19T05:56:50.134Z,18.21
2018-06-19T05:58:50.213Z,18.34
2018-06-19T06:00:50.346Z,18.41
2018-06-19T06:02:50.417Z,18.50
2018-06-19T06:04:50.700Z,18.65
2018-06-19T06:06:49.944Z,18.73
2018-06-19T06:08:50.053Z,18.75
2018-06-19T06:10:50.153Z,19.09
2018-06-19T06:12:50.261Z,19.25
2018-06-19T06:14:50.469Z,19.62
2018-06-19T06:16:50.719Z,19.84
2018-06-19T06:18:49.877Z,20.3
2018-06-19T06:20:49.955Z,20.3
2018-06-19T06:22:50.031Z,20.6
2018-06-19T06:24:50.173Z,20.40
2018-06-19T06:26:50.422Z,20.31
2018-06-19T06:28:50.569Z,20.28
2018-06-19T06:30:50.774Z,20.21
2018-06-19T06:32:49.874Z,20.29
2018-06-19T06:34:50.162Z,20.31
2018-06-19T06:36:50.399Z,20.28
2018-06-19T06:38:50.576Z,20.24
2018-06-19T06:40:50.630Z,20.17
2018-06-19T06:42:50.765Z,20.10
2018-06-19T06:44:51.374Z,20.23
2018-06-19T06:46:50.832Z,20.31
2018-06-19T06:48:49.988Z,20.33
2018-06-19T06:50:50.087Z,20.32
2018-06-19T06:52:50.223Z,20.26
2018-06-19T06:54:50.313Z,20.22
2018-06-19T06:56:50.610Z,20.16
2018-06-19T06:58:50.731Z,20.25
2018-06-19T07:00:49.900Z,20.23
2018-06-19T07:02:50.108Z,20.28
2018-06-19T07:04:50.554Z,20.26
2018-06-19T07:06:49.869Z,20.13
2018-06-19T07:08:49.960Z,20.12
2018-06-19T07:10:50.029Z,20.24
2018-06-19T07:12:50.223Z,20.37
2018-06-19T07:14:50.384Z,20.40
2018-06-19T07:16:50.614Z,20.53
2018-06-19T07:18:51.146Z,20.62
2018-06-19T07:20:50.355Z,20.75
2018-06-19T07:22:50.438Z,20.77
2018-06-19T07:24:50.540Z,20.75
2018-06-19T07:26:50.824Z,20.73
2018-06-19T07:28:49.922Z,20.79
2018-06-19T07:30:50.459Z,20.79
2018-06-19T07:32:50.672Z,20.86
2018-06-19T07:34:50.110Z,20.74
2018-06-19T07:36:50.913Z,20.58
2018-06-19T07:38:50.184Z,20.68
2018-06-19T07:40:50.271Z,20.72
2018-06-19T07:42:50.467Z,20.80
2018-06-19T07:44:50.562Z,21.21
2018-06-19T07:46:50.785Z,21.36
2018-06-19T07:48:49.922Z,21.68
2018-06-19T07:50:50.093Z,21.74
2018-06-19T07:52:50.213Z,21.68
2018-06-19T07:54:50.279Z,21.53
2018-06-19T07:56:50.516Z,21.48
2018-06-19T07:58:50.704Z,21.57
2018-06-19T08:00:50.815Z,21.89
2018-06-19T08:02:49.884Z,21.83
2018-06-19T08:04:50.318Z,21.62
2018-06-19T08:06:50.558Z,21.54
2018-06-19T08:08:50.727Z,21.50
2018-06-19T08:10:50.793Z,21.47
2018-06-19T08:12:49.891Z,21.47
2018-06-19T08:14:50.024Z,21.54
2018-06-19T08:16:50.325Z,21.55
2018-06-19T08:18:50.756Z,21.62
2018-06-19T08:20:50.120Z,21.74
2018-06-19T08:22:50.832Z,21.74
2018-06-19T08:24:50.113Z,21.89
2018-06-19T08:26:50.264Z,22.02
2018-06-19T08:28:50.372Z,21.76
2018-06-19T08:30:50.430Z,21.71
2018-06-19T08:32:50.528Z,21.57
2018-06-19T08:34:50.864Z,21.77
2018-06-19T08:36:50.182Z,21.81
2018-06-19T08:38:50.270Z,21.85
2018-06-19T08:40:50.332Z,21.85
2018-06-19T08:42:50.406Z,22.21
2018-06-19T08:44:50.619Z,22.27
2018-06-19T08:46:50.842Z,22.31
2018-06-19T08:48:49.908Z,22.27
2018-06-19T08:50:49.988Z,22.07
2018-06-19T08:52:50.065Z,21.83
2018-06-19T08:54:50.170Z,21.81
2018-06-19T08:56:50.415Z,21.81
2018-06-19T08:58:50.523Z,21.83
2018-06-19T09:00:50.634Z,21.84
2018-06-19T09:02:50.716Z,22.04
2018-06-19T09:04:50.101Z,22.17
2018-06-19T09:06:50.352Z,22.23
2018-06-19T09:08:50.495Z,22.25
2018-06-19T09:10:50.562Z,22.30
2018-06-19T09:12:50.623Z,22.25
2018-06-19T09:14:50.747Z,22.22
2018-06-19T09:16:50.021Z,22.07
2018-06-19T09:18:50.094Z,21.97
2018-06-19T09:20:50.175Z,22.00
2018-06-19T09:22:50.287Z,22.21
2018-06-19T09:24:50.322Z,22.28
2018-06-19T09:26:50.622Z,22.27
2018-06-19T09:28:50.675Z,22.28
2018-06-19T09:30:50.730Z,22.12
2018-06-19T09:32:50.873Z,22.12
2018-06-19T09:34:50.306Z,22.07
2018-06-19T09:36:50.511Z,22.05
2018-06-19T09:38:50.625Z,21.95
2018-06-19T09:40:50.682Z,21.92
2018-06-19T09:42:50.799Z,21.90
2018-06-19T09:44:49.948Z,22.18
2018-06-19T09:46:50.133Z,22.43
2018-06-19T09:48:50.348Z,22.89
2018-06-19T09:50:50.480Z,23.14
2018-06-19T09:52:50.579Z,23.26
2018-06-19T09:54:49.921Z,23.30
2018-06-19T09:56:50.097Z,23.36
2018-06-19T09:58:50.206Z,23.45
2018-06-19T10:00:50.345Z,23.45
2018-06-19T10:02:50.541Z,23.53
2018-06-19T10:04:50.891Z,23.38
2018-06-19T10:06:50.197Z,23.20
2018-06-19T10:08:50.652Z,23.06
2018-06-19T10:10:50.795Z,23.12
2018-06-19T10:12:49.975Z,23.25
2018-06-19T10:14:50.046Z,23.41
2018-06-19T10:16:50.268Z,23.41
2018-06-19T10:18:50.346Z,23.42
2018-06-19T10:20:50.327Z,23.51
2018-06-19T10:22:50.387Z,23.71
2018-06-19T10:24:50.437Z,23.65
2018-06-19T10:26:50.604Z,23.65
2018-06-19T10:28:50.670Z,23.74
2018-06-19T10:30:50.764Z,23.76
2018-06-19T10:32:49.916Z,23.75
2018-06-19T10:34:50.281Z,23.82
2018-06-19T10:36:50.503Z,23.84
2018-06-19T10:38:50.592Z,23.80
2018-06-19T10:40:50.735Z,23.75
2018-06-19T10:42:49.929Z,23.44
2018-06-19T10:44:49.976Z,23.44
2018-06-19T10:46:50.278Z,23.70
2018-06-19T10:48:50.486Z,23.80
2018-06-19T10:50:50.623Z,23.93
2018-06-19T10:52:51.308Z,23.93
2018-06-19T10:54:50.436Z,23.83
2018-06-19T10:56:50.667Z,24.14
2018-06-19T10:58:50.973Z,24.85
2018-06-19T11:00:50.150Z,24.62
2018-06-19T11:02:50.263Z,24.23
2018-06-19T11:04:50.574Z,24.35
2018-06-19T11:06:50.748Z,24.44
2018-06-19T11:08:50.870Z,24.46
2018-06-19T11:10:49.929Z,24.46
2018-06-19T11:12:50.085Z,24.42
2018-06-19T11:14:50.192Z,24.82
2018-06-19T11:16:50.624Z,24.92
2018-06-19T11:18:50.710Z,25.01
2018-06-19T11:20:50.798Z,25.06
2018-06-19T11:22:49.934Z,25.51
2018-06-19T11:24:50.059Z,25.68
2018-06-19T11:26:50.261Z,25.51
2018-06-19T11:28:50.384Z,25.17
2018-06-19T11:30:50.502Z,24.86
2018-06-19T11:32:50.697Z,24.82
2018-06-19T11:34:49.953Z,24.82
2018-06-19T11:36:50.395Z,24.89
2018-06-19T11:38:50.572Z,24.93
2018-06-19T11:40:50.615Z,25.04
2018-06-19T11:42:50.842Z,25.04
2018-06-19T11:44:50.182Z,25.11
2018-06-19T11:46:50.391Z,25.16
2018-06-19T11:48:50.523Z,25.15
2018-06-19T11:50:50.631Z,25.15
2018-06-19T11:52:50.807Z,24.99
2018-06-19T11:54:50.875Z,24.95
2018-06-19T11:56:50.420Z,24.88
2018-06-19T11:58:50.595Z,24.81
2018-06-19T12:00:50.704Z,24.59
2018-06-19T12:02:49.924Z,24.51
2018-06-19T12:04:50.367Z,24.44
2018-06-19T12:06:50.848Z,24.43
2018-06-19T12:08:49.897Z,24.51
2018-06-19T12:10:50.023Z,24.59
2018-06-19T12:12:50.163Z,24.64
2018-06-19T12:14:50.303Z,24.70
2018-06-19T12:16:50.568Z,24.84
2018-06-19T12:18:50.672Z,25.02
2018-06-19T12:20:50.771Z,25.14
2018-06-19T12:22:49.938Z,25.14
2018-06-19T12:24:50.094Z,25.09
2018-06-19T12:26:50.295Z,25.10
2018-06-19T12:28:50.474Z,25.12
2018-06-19T12:30:50.542Z,25.15
2018-06-19T12:32:50.704Z,25.10
2018-06-19T12:34:49.928Z,25.05
2018-06-19T12:36:50.141Z,24.95
2018-06-19T12:38:50.272Z,25.05
2018-06-19T12:40:50.365Z,25.18
2018-06-19T12:42:50.488Z,25.16
2018-06-19T12:44:50.942Z,25.17
2018-06-19T12:46:50.407Z,25.94
2018-06-19T12:48:50.541Z,25.83
2018-06-19T12:50:50.877Z,25.52
2018-06-19T12:52:50.497Z,25.46
2018-06-19T12:54:50.553Z,25.57
2018-06-19T12:56:50.713Z,25.43
2018-06-19T12:58:50.696Z,25.40
2018-06-19T13:00:50.786Z,25.45
2018-06-19T13:02:49.972Z,25.23
2018-06-19T13:04:50.290Z,25.24
2018-06-19T13:06:50.425Z,25.31
2018-06-19T13:08:50.488Z,25.36
2018-06-19T13:10:50.647Z,25.41
2018-06-19T13:12:50.707Z,25.39
2018-06-19T13:14:50.526Z,25.27
2018-06-19T13:16:50.702Z,24.96
2018-06-19T13:18:50.749Z,24.96
2018-06-19T13:20:50.885Z,25.24
2018-06-19T13:22:50.784Z,25.24
2018-06-19T13:24:49.876Z,25.27
2018-06-19T13:26:50.093Z,25.25
2018-06-19T13:28:50.165Z,25.85
2018-06-19T13:30:50.874Z,26.06
2018-06-19T13:32:50.038Z,27.24
2018-06-19T13:34:50.483Z,27.6
2018-06-19T13:36:50.652Z,27.6
2018-06-19T13:38:50.707Z,27.8
2018-06-19T13:40:50.791Z,27.8
2018-06-19T13:42:49.892Z,27.29
2018-06-19T13:44:49.979Z,26.94
2018-06-19T13:46:49.899Z,26.77
2018-06-19T13:48:49.981Z,27.01
2018-06-19T13:50:50.058Z,26.90
2018-06-19T13:52:50.104Z,26.77
2018-06-19T13:54:50.187Z,27.14
2018-06-19T13:56:50.339Z,27.8
2018-06-19T13:58:50.454Z,27.7
2018-06-19T14:00:50.547Z,27.7
2018-06-19T14:02:50.695Z,27.30
2018-06-19T14:04:49.982Z,26.93
2018-06-19T14:06:50.174Z,26.70
2018-06-19T14:08:50.296Z,26.49
2018-06-19T14:10:50.408Z,26.04
2018-06-19T14:12:50.458Z,25.78
2018-06-19T14:14:50.455Z,25.67
2018-06-19T14:16:50.690Z,25.85
2018-06-19T14:18:50.762Z,25.98
2018-06-19T14:20:50.906Z,26.20
2018-06-19T14:22:49.945Z,26.29
2018-06-19T14:24:50.028Z,27.20
2018-06-19T14:26:50.251Z,27.4
2018-06-19T14:28:50.641Z,27.3
2018-06-19T14:30:50.775Z,27.2
2018-06-19T14:32:49.899Z,27.2
2018-06-19T14:34:50.222Z,27.2
2018-06-19T14:36:50.412Z,27.2
2018-06-19T14:38:50.673Z,27.2
2018-06-19T14:40:50.760Z,27.3
2018-06-19T14:42:49.855Z,27.3
2018-06-19T14:44:49.935Z,27.2
2018-06-19T14:46:50.505Z,27.2
2018-06-19T14:48:50.741Z,27.2
2018-06-19T14:50:50.870Z,27.2
2018-06-19T14:52:50.041Z,27.2
2018-06-19T14:54:50.085Z,27.1
2018-06-19T14:56:50.274Z,27.0
2018-06-19T14:58:50.357Z,27.0
2018-06-19T15:00:50.465Z,27.0
2018-06-19T15:02:50.590Z,26.9
2018-06-19T15:04:49.889Z,26.9
2018-06-19T15:06:50.161Z,27.0
2018-06-19T15:08:50.311Z,27.0
2018-06-19T15:10:50.407Z,27.0
2018-06-19T15:12:50.832Z,26.9
2018-06-19T15:14:49.942Z,26.9
2018-06-19T15:16:50.102Z,26.8
2018-06-19T15:18:50.345Z,26.8
2018-06-19T15:20:50.369Z,26.8
2018-06-19T15:22:50.529Z,26.8
2018-06-19T15:24:50.578Z,26.7
2018-06-19T15:26:50.784Z,26.7
2018-06-19T15:28:49.937Z,26.7
2018-06-19T15:30:49.977Z,26.7
2018-06-19T15:32:50.067Z,26.8
2018-06-19T15:34:50.330Z,26.7
2018-06-19T15:36:50.567Z,26.7
2018-06-19T15:38:50.654Z,26.7
2018-06-19T15:40:50.804Z,26.7
2018-06-19T15:42:50.870Z,26.7
2018-06-19T15:44:49.964Z,26.7
2018-06-19T15:46:50.179Z,26.7
2018-06-19T15:48:50.262Z,26.66
2018-06-19T15:50:50.435Z,26.13
2018-06-19T15:52:50.519Z,25.88
2018-06-19T15:54:50.586Z,25.80
2018-06-19T15:56:50.761Z,25.80
2018-06-19T15:58:49.882Z,25.88
2018-06-19T16:00:49.963Z,25.93
2018-06-19T16:02:50.034Z,26.12
2018-06-19T16:04:50.548Z,26.5
2018-06-19T16:06:50.781Z,26.5
2018-06-19T16:08:49.910Z,26.6
2018-06-19T16:10:50.025Z,26.6
2018-06-19T16:12:50.270Z,26.7
2018-06-19T16:14:50.371Z,26.7
2018-06-19T16:16:50.573Z,26.8
2018-06-19T16:18:50.669Z,26.56
2018-06-19T16:20:50.803Z,26.05
2018-06-19T16:22:49.986Z,25.87
2018-06-19T16:24:50.095Z,25.78
2018-06-19T16:26:50.361Z,25.79
2018-06-19T16:28:50.458Z,25.77
2018-06-19T16:30:50.536Z,25.70
2018-06-19T16:32:50.797Z,25.68
2018-06-19T16:34:50.159Z,25.56
2018-06-19T16:36:50.299Z,25.29
2018-06-19T16:38:50.464Z,25.17
2018-06-19T16:40:50.589Z,25.10
2018-06-19T16:42:50.747Z,25.17
2018-06-19T16:44:50.827Z,25.26
2018-06-19T16:46:50.058Z,25.25
2018-06-19T16:48:50.183Z,25.21
2018-06-19T16:50:50.270Z,24.97
2018-06-19T16:52:50.411Z,24.92
2018-06-19T16:54:50.533Z,24.94
2018-06-19T16:56:50.826Z,24.94
2018-06-19T16:58:49.945Z,24.92
2018-06-19T17:00:50.018Z,24.86
2018-06-19T17:02:50.197Z,24.84
2018-06-19T17:04:50.585Z,24.87
2018-06-19T17:06:50.782Z,24.82
2018-06-19T17:08:50.847Z,24.77
2018-06-19T17:10:49.973Z,24.66
2018-06-19T17:12:50.225Z,24.64
2018-06-19T17:14:50.271Z,24.67
2018-06-19T17:16:50.442Z,24.73
2018-06-19T17:18:50.521Z,24.71
2018-06-19T17:20:50.598Z,24.66
2018-06-19T17:22:50.641Z,24.70
2018-06-19T17:24:50.775Z,24.75
2018-06-19T17:26:50.049Z,24.73
2018-06-19T17:28:50.157Z,24.65
2018-06-19T17:30:50.349Z,24.66
2018-06-19T17:32:50.471Z,24.72
2018-06-19T17:34:50.799Z,24.73
2018-06-19T17:36:50.079Z,24.62
2018-06-19T17:38:50.203Z,24.43
2018-06-19T17:40:50.635Z,24.37
2018-06-19T17:42:50.780Z,24.37
2018-06-19T17:44:49.921Z,24.42
2018-06-19T17:46:50.248Z,24.46
2018-06-19T17:48:50.387Z,24.51
2018-06-19T17:50:50.501Z,24.54
2018-06-19T17:52:50.686Z,24.54
2018-06-19T17:54:50.789Z,24.51
2018-06-19T17:56:49.961Z,24.51
2018-06-19T17:58:50.042Z,24.46
2018-06-19T18:00:50.093Z,24.38
2018-06-19T18:02:50.317Z,24.26
2018-06-19T18:04:50.671Z,24.08
2018-06-19T18:06:49.919Z,23.98
2018-06-19T18:08:49.973Z,23.82
2018-06-19T18:10:50.763Z,23.82
2018-06-19T18:12:49.984Z,23.82
2018-06-19T18:14:50.152Z,23.73
2018-06-19T18:16:50.466Z,23.71
2018-06-19T18:18:50.614Z,23.67
2018-06-19T18:20:50.648Z,23.64
2018-06-19T18:22:50.810Z,23.61
2018-06-19T18:24:49.888Z,23.56
2018-06-19T18:26:50.223Z,23.54
2018-06-19T18:28:50.322Z,23.51
2018-06-19T18:30:50.381Z,23.49
2018-06-19T18:32:50.526Z,23.47
2018-06-19T18:34:50.766Z,23.47
2018-06-19T18:36:49.971Z,23.44
2018-06-19T18:38:50.220Z,23.42
2018-06-19T18:40:50.328Z,23.40
2018-06-19T18:42:50.483Z,23.38
2018-06-19T18:44:50.555Z,23.38
2018-06-19T18:46:51.572Z,23.30
2018-06-19T18:48:50.805Z,23.27
2018-06-19T18:50:49.933Z,23.22
2018-06-19T18:52:50.060Z,23.19
2018-06-19T18:54:50.113Z,23.16
2018-06-19T18:56:50.266Z,23.12
2018-06-19T18:58:50.310Z,23.07
2018-06-19T19:00:50.450Z,23.06
2018-06-19T19:02:50.878Z,23.02
2018-06-19T19:04:50.548Z,22.95
2018-06-19T19:06:50.892Z,22.93
2018-06-19T19:08:50.025Z,22.90
2018-06-19T19:10:50.162Z,22.87
2018-06-19T19:12:50.332Z,22.80
2018-06-19T19:14:50.455Z,22.78
2018-06-19T19:16:50.721Z,22.73
2018-06-19T19:18:50.816Z,22.71
2018-06-19T19:20:50.810Z,22.66
2018-06-19T19:22:50.097Z,22.63
2018-06-19T19:24:50.180Z,22.60
2018-06-19T19:26:50.377Z,22.51
2018-06-19T19:28:50.475Z,22.47
2018-06-19T19:30:50.374Z,22.45
2018-06-19T19:32:50.610Z,22.45
2018-06-19T19:34:50.864Z,22.37
2018-06-19T19:36:50.096Z,22.35
2018-06-19T19:38:50.346Z,22.30
2018-06-19T19:40:50.405Z,22.30
2018-06-19T19:42:50.598Z,22.23
2018-06-19T19:44:50.682Z,22.23
2018-06-19T19:46:49.934Z,22.15
2018-06-19T19:48:50.027Z,22.14
2018-06-19T19:50:50.765Z,22.12
2018-06-19T19:52:49.953Z,22.05
2018-06-19T19:54:50.163Z,22.03
2018-06-19T19:56:50.383Z,21.96
2018-06-19T19:58:50.452Z,21.90
2018-06-19T20:00:50.497Z,21.83
2018-06-19T20:02:50.571Z,21.78
2018-06-19T20:04:50.853Z,21.71
2018-06-19T20:06:50.012Z,21.71
2018-06-19T20:08:50.171Z,21.61
2018-06-19T20:10:50.218Z,21.58
2018-06-19T20:12:50.355Z,21.52
2018-06-19T20:14:50.461Z,21.51
2018-06-19T20:16:50.681Z,21.52
2018-06-19T20:18:50.711Z,21.49
2018-06-19T20:20:50.791Z,21.44
2018-06-19T20:22:50.845Z,21.41
2018-06-19T20:24:49.953Z,21.32
2018-06-19T20:26:50.114Z,21.26
2018-06-19T20:28:50.244Z,21.19
2018-06-19T20:30:50.354Z,21.11
2018-06-19T20:32:50.412Z,21.05
2018-06-19T20:34:50.643Z,20.98
2018-06-19T20:36:50.816Z,20.96
2018-06-19T20:38:49.915Z,20.86
2018-06-19T20:40:50.064Z,20.80
2018-06-19T20:42:50.127Z,20.75
2018-06-19T20:44:50.314Z,20.71
2018-06-19T20:46:50.524Z,20.59
2018-06-19T20:48:50.694Z,20.43
2018-06-19T20:50:50.832Z,20.36
2018-06-19T20:52:49.934Z,20.19
2018-06-19T20:54:50.089Z,20.15
2018-06-19T20:56:50.249Z,20.11
2018-06-19T20:58:50.386Z,20.11
2018-06-19T21:00:50.523Z,19.99
2018-06-19T21:02:50.690Z,19.91
2018-06-19T21:04:49.977Z,19.90
2018-06-19T21:06:50.151Z,19.84
2018-06-19T21:08:50.224Z,19.75
2018-06-19T21:10:50.275Z,19.70
2018-06-19T21:12:50.468Z,19.62
2018-06-19T21:14:50.555Z,19.54
2018-06-19T21:16:50.799Z,19.42
2018-06-19T21:18:49.925Z,19.32
2018-06-19T21:20:49.986Z,19.19
2018-06-19T21:22:50.083Z,19.10
2018-06-19T21:24:50.178Z,19.04
2018-06-19T21:26:50.376Z,18.93
2018-06-19T21:28:50.483Z,18.81
2018-06-19T21:30:50.553Z,18.77
2018-06-19T21:32:50.728Z,18.71
2018-06-19T21:34:49.930Z,18.61
2018-06-19T21:36:50.156Z,18.53
2018-06-19T21:38:50.219Z,18.41
2018-06-19T21:40:50.380Z,18.38
2018-06-19T21:42:50.454Z,18.30
2018-06-19T21:44:50.554Z,18.22
2018-06-19T21:46:50.753Z,18.21
2018-06-19T21:48:50.861Z,18.12
2018-06-19T21:50:49.996Z,18.07
2018-06-19T21:52:50.053Z,18.01
2018-06-19T21:54:50.135Z,17.98
2018-06-19T21:56:50.393Z,17.88
2018-06-19T21:58:50.483Z,17.79
2018-06-19T22:00:50.622Z,17.79
2018-06-19T22:02:50.756Z,17.63
2018-06-19T22:04:50.160Z,17.57
2018-06-19T22:06:50.384Z,17.51
2018-06-19T22:08:50.453Z,17.46
2018-06-19T22:10:50.322Z,17.39
2018-06-19T22:12:50.450Z,17.35
2018-06-19T22:14:50.538Z,17.31
2018-06-19T22:16:49.891Z,17.31
2018-06-19T22:18:50.262Z,17.32
2018-06-19T22:20:50.334Z,17.28
2018-06-19T22:22:50.439Z,17.27
2018-06-19T22:24:50.627Z,17.24
2018-06-19T22:26:49.910Z,17.21
2018-06-19T22:28:49.995Z,17.14
2018-06-19T22:30:50.139Z,17.11
2018-06-19T22:32:50.225Z,17.02
2018-06-19T22:34:50.558Z,16.96
2018-06-19T22:36:49.996Z,16.96
2018-06-19T22:38:50.155Z,16.86
2018-06-19T22:40:50.232Z,16.83
2018-06-19T22:42:50.417Z,16.76
2018-06-19T22:44:50.525Z,16.73
2018-06-19T22:46:49.933Z,16.68
2018-06-19T22:48:50.011Z,16.67
2018-06-19T22:50:50.092Z,16.62
2018-06-19T22:52:50.406Z,16.61
2018-06-19T22:54:50.570Z,16.58
2018-06-19T22:56:50.841Z,16.54
2018-06-19T22:58:49.940Z,16.48
2018-06-19T23:00:50.014Z,16.46
2018-06-19T23:02:50.129Z,16.42
2018-06-19T23:04:50.507Z,16.41
2018-06-19T23:06:50.713Z,16.34
2018-06-19T23:08:50.793Z,16.27
2018-06-19T23:10:49.930Z,16.25
2018-06-19T23:12:50.015Z,16.18
2018-06-19T23:14:50.095Z,16.16
2018-06-19T23:16:50.440Z,16.11
2018-06-19T23:18:50.496Z,16.08
2018-06-19T23:20:50.623Z,16.01
2018-06-19T23:22:49.929Z,16.03
2018-06-19T23:24:50.096Z,16.04
2018-06-19T23:26:50.396Z,16.00
2018-06-19T23:28:50.460Z,15.98
2018-06-19T23:30:50.560Z,15.97
2018-06-19T23:32:50.753Z,15.94
2018-06-19T23:34:50.064Z,15.90
2018-06-19T23:36:50.309Z,15.83
2018-06-19T23:38:50.510Z,15.82
2018-06-19T23:40:50.580Z,15.81
2018-06-19T23:42:50.756Z,15.81
2018-06-19T23:44:50.858Z,15.81
2018-06-19T23:46:50.134Z,15.79
2018-06-19T23:48:50.266Z,15.78
2018-06-19T23:50:50.412Z,15.76
2018-06-19T23:52:50.556Z,15.72
2018-06-19T23:54:50.596Z,15.68
2018-06-19T23:56:49.939Z,15.68
2018-06-19T23:58:50.044Z,15.70
